createdAt,value
2022-12-16T00:00:11.396Z,18.37
2022-12-16T00:02:41.193Z,16.67
2022-12-16T00:05:10.088Z,15.63
2022-12-16T00:07:38.391Z,23.60
2022-12-16T00:10:07.911Z,21.77
2022-12-16T00:12:36.549Z,21.47
2022-12-16T00:15:05.369Z,21.40
2022-12-16T00:17:33.567Z,20.73
2022-12-16T00:20:04.032Z,17.83
2022-12-16T00:22:32.240Z,16.33
2022-12-16T00:25:00.454Z,16.67
2022-12-16T00:27:28.827Z,18.07
2022-12-16T00:29:57.061Z,17.63
2022-12-16T00:32:25.320Z,15.57
2022-12-16T00:34:53.546Z,19.73
2022-12-16T00:37:24.573Z,16.43
2022-12-16T00:39:52.854Z,16.77
2022-12-16T00:42:21.089Z,18.10
2022-12-16T00:44:49.561Z,17.80
2022-12-16T00:47:17.869Z,20.20
2022-12-16T00:49:47.321Z,16.83
2022-12-16T00:52:15.585Z,15.13
2022-12-16T00:54:45.233Z,16.73
2022-12-16T00:57:13.716Z,17.03
2022-12-16T00:59:41.992Z,16.80
2022-12-16T01:02:38.041Z,16.53
2022-12-16T01:05:07.179Z,16.17
2022-12-16T01:07:36.470Z,16.23
2022-12-16T01:10:08.271Z,13.87
2022-12-16T01:12:37.095Z,20.40
2022-12-16T01:15:08.269Z,17.37
2022-12-16T01:17:36.937Z,13.80
2022-12-16T01:20:05.824Z,14.47
2022-12-16T01:22:34.947Z,15.13
2022-12-16T01:25:03.215Z,15.13
2022-12-16T01:27:32.814Z,15.37
2022-12-16T01:30:01.176Z,14.07
2022-12-16T01:32:29.404Z,15.27
2022-12-16T01:34:57.609Z,15.03
2022-12-16T01:37:25.971Z,14.30
2022-12-16T01:39:54.233Z,13.87
2022-12-16T01:42:24.180Z,14.07
2022-12-16T01:44:55.194Z,14.53
2022-12-16T01:47:27.803Z,13.70
2022-12-16T01:50:00.280Z,16.77
2022-12-16T01:52:55.088Z,15.53
2022-12-16T01:55:29.409Z,13.13
2022-12-16T01:58:23.538Z,14.00
2022-12-16T02:00:54.596Z,15.87
2022-12-16T02:03:23.958Z,14.80
2022-12-16T02:05:53.147Z,13.27
2022-12-16T02:08:22.634Z,14.30
2022-12-16T02:11:08.167Z,14.00
2022-12-16T02:13:49.197Z,13.43
2022-12-16T02:16:25.583Z,13.70
2022-12-16T02:19:01.484Z,13.70
2022-12-16T02:21:53.852Z,15.13
2022-12-16T02:24:49.511Z,14.63
2022-12-16T02:27:47.010Z,17.37
2022-12-16T02:30:48.876Z,16.97
2022-12-16T02:33:52.520Z,15.63
2022-12-16T02:36:28.260Z,15.77
2022-12-16T02:39:22.328Z,14.80
2022-12-16T02:41:57.584Z,14.47
2022-12-16T02:44:34.808Z,16.17
2022-12-16T02:47:04.468Z,15.20
2022-12-16T02:49:50.174Z,14.63
2022-12-16T02:52:22.397Z,13.97
2022-12-16T02:54:53.543Z,16.93
2022-12-16T02:57:47.220Z,19.60
2022-12-16T03:00:18.350Z,16.57
2022-12-16T03:02:56.525Z,15.83
2022-12-16T03:05:29.068Z,18.13
2022-12-16T03:08:02.374Z,15.23
2022-12-16T03:10:35.379Z,15.13
2022-12-16T03:13:06.057Z,12.80
2022-12-16T03:15:36.324Z,16.50
2022-12-16T03:18:09.098Z,16.17
2022-12-16T03:20:41.431Z,20.53
2022-12-16T03:23:15.129Z,15.67
2022-12-16T03:25:46.589Z,14.10
2022-12-16T03:28:24.272Z,18.03
2022-12-16T03:31:24.006Z,15.57
2022-12-16T03:33:58.663Z,16.40
2022-12-16T03:36:28.824Z,15.17
2022-12-16T03:38:58.401Z,14.23
2022-12-16T03:41:27.491Z,18.20
2022-12-16T03:43:55.937Z,15.73
2022-12-16T03:46:24.324Z,15.83
2022-12-16T03:48:54.032Z,15.20
2022-12-16T03:51:22.285Z,17.47
2022-12-16T03:53:50.541Z,21.30
2022-12-16T03:56:18.758Z,19.33
2022-12-16T03:58:47.072Z,17.53
2022-12-16T04:01:15.754Z,16.07
2022-12-16T04:03:44.166Z,15.10
2022-12-16T04:06:18.583Z,16.87
2022-12-16T04:08:47.296Z,19.57
2022-12-16T04:11:34.159Z,17.53
2022-12-16T04:14:20.044Z,17.73
2022-12-16T04:17:05.729Z,15.87
2022-12-16T04:19:55.472Z,15.73
2022-12-16T04:22:45.375Z,15.03
2022-12-16T04:25:16.856Z,17.20
2022-12-16T04:27:46.990Z,17.23
2022-12-16T04:30:22.430Z,17.17
2022-12-16T04:33:12.647Z,15.77
2022-12-16T04:35:58.394Z,17.23
2022-12-16T04:38:45.460Z,17.37
2022-12-16T04:41:54.787Z,18.23
2022-12-16T04:44:40.502Z,17.27
2022-12-16T04:47:26.406Z,15.17
2022-12-16T04:50:16.890Z,15.83
2022-12-16T04:53:04.614Z,16.10
2022-12-16T04:55:51.546Z,17.73
2022-12-16T05:01:46.238Z,17.93
2022-12-16T05:04:32.221Z,15.67
2022-12-16T05:07:43.110Z,15.23
2022-12-16T05:10:40.849Z,15.00
2022-12-16T05:13:24.318Z,14.80
2022-12-16T05:16:24.629Z,15.70
2022-12-16T05:19:10.408Z,18.40
2022-12-16T05:21:56.317Z,17.50
2022-12-16T05:24:42.112Z,15.73
2022-12-16T05:27:27.840Z,16.67
2022-12-16T05:30:14.090Z,14.23
2022-12-16T05:32:59.799Z,17.03
2022-12-16T05:35:45.380Z,14.80
2022-12-16T05:38:31.212Z,15.30
2022-12-16T05:41:16.653Z,15.03
2022-12-16T05:44:02.404Z,16.27
2022-12-16T05:46:49.435Z,15.00
2022-12-16T05:49:46.627Z,23.90
2022-12-16T05:52:32.514Z,15.00
2022-12-16T05:55:18.296Z,17.27
2022-12-16T06:01:21.764Z,17.13
2022-12-16T06:04:12.841Z,16.37
2022-12-16T06:07:01.435Z,16.50
2022-12-16T06:09:54.861Z,16.77
2022-12-16T06:12:42.387Z,15.23
2022-12-16T06:15:28.423Z,19.80
2022-12-16T06:18:13.971Z,17.17
2022-12-16T06:21:00.792Z,17.13
2022-12-16T06:23:46.154Z,16.03
2022-12-16T06:26:32.387Z,18.33
2022-12-16T06:29:18.032Z,17.67
2022-12-16T06:32:03.717Z,16.03
2022-12-16T06:34:49.408Z,13.87
2022-12-16T06:37:36.147Z,16.07
2022-12-16T06:40:22.568Z,20.07
2022-12-16T06:43:07.998Z,25.90
2022-12-16T06:46:08.030Z,20.77
2022-12-16T06:48:58.885Z,17.90
2022-12-16T06:51:44.412Z,19.77
2022-12-16T06:54:31.289Z,19.50
2022-12-16T06:57:23.881Z,18.53
2022-12-16T07:00:14.055Z,19.03
2022-12-16T07:02:59.570Z,17.83
2022-12-16T07:05:45.087Z,21.23
2022-12-16T07:08:30.345Z,20.73
2022-12-16T07:11:50.707Z,19.20
2022-12-16T07:14:36.571Z,24.63
2022-12-16T07:17:22.194Z,21.27
2022-12-16T07:20:08.331Z,23.33
2022-12-16T07:23:04.087Z,24.57
2022-12-16T07:25:55.210Z,25.17
2022-12-16T07:29:07.402Z,25.77
2022-12-16T07:31:53.073Z,27.30
2022-12-16T07:34:42.099Z,23.37
2022-12-16T07:37:30.557Z,26.17
2022-12-16T07:40:16.093Z,26.00
2022-12-16T07:43:19.704Z,24.20
2022-12-16T07:46:31.468Z,26.93
2022-12-16T07:49:17.062Z,28.93
2022-12-16T07:55:37.316Z,29.30
2022-12-16T08:01:26.400Z,27.63
2022-12-16T08:04:13.609Z,27.17
2022-12-16T08:06:59.219Z,25.30
2022-12-16T08:09:45.143Z,29.37
2022-12-16T08:12:31.102Z,28.77
2022-12-16T08:15:16.663Z,26.60
2022-12-16T08:18:07.792Z,23.23
2022-12-16T08:20:56.144Z,21.33
2022-12-16T08:23:41.933Z,18.97
2022-12-16T08:26:53.180Z,21.10
2022-12-16T08:29:54.932Z,24.00
2022-12-16T08:32:40.861Z,19.83
2022-12-16T08:35:26.990Z,22.17
2022-12-16T08:38:15.613Z,20.07
2022-12-16T08:41:02.654Z,18.93
2022-12-16T08:44:10.611Z,16.17
2022-12-16T08:46:56.018Z,14.80
2022-12-16T08:49:41.809Z,14.23
2022-12-16T08:52:27.279Z,13.53
2022-12-16T08:55:14.018Z,14.33
2022-12-16T08:57:59.753Z,13.07
2022-12-16T09:00:45.028Z,15.67
2022-12-16T09:03:30.521Z,15.70
2022-12-16T09:06:17.479Z,15.57
2022-12-16T09:09:06.148Z,15.33
2022-12-16T09:11:52.963Z,15.67
2022-12-16T09:14:38.572Z,17.43
2022-12-16T09:17:23.826Z,15.87
2022-12-16T09:20:09.361Z,14.20
2022-12-16T09:22:55.214Z,15.07
2022-12-16T09:25:40.715Z,15.10
2022-12-16T09:28:27.774Z,15.70
2022-12-16T09:31:13.363Z,15.50
2022-12-16T09:33:58.672Z,13.73
2022-12-16T09:36:44.138Z,15.10
2022-12-16T09:39:29.690Z,14.63
2022-12-16T09:42:22.145Z,15.23
2022-12-16T09:45:22.556Z,15.03
2022-12-16T09:48:20.310Z,15.90
2022-12-16T09:51:06.184Z,14.57
2022-12-16T09:53:55.550Z,16.80
2022-12-16T09:56:46.604Z,16.33
2022-12-16T09:59:34.518Z,16.00
2022-12-16T10:02:21.753Z,16.53
2022-12-16T10:05:11.096Z,16.17
2022-12-16T10:08:04.762Z,15.33
2022-12-16T10:10:59.021Z,16.43
2022-12-16T10:13:59.893Z,16.47
2022-12-16T10:16:51.191Z,16.23
2022-12-16T10:19:51.917Z,15.20
2022-12-16T10:22:46.509Z,17.60
2022-12-16T10:25:37.819Z,16.40
2022-12-16T10:28:33.990Z,16.80
2022-12-16T10:31:20.483Z,17.33
2022-12-16T10:34:09.345Z,19.53
2022-12-16T10:36:57.907Z,21.30
2022-12-16T10:39:50.289Z,20.67
2022-12-16T10:42:41.952Z,17.37
2022-12-16T10:45:38.211Z,18.03
2022-12-16T10:48:24.010Z,19.00
2022-12-16T10:51:17.971Z,18.90
2022-12-16T10:54:08.070Z,17.83
2022-12-16T10:57:09.621Z,17.57
2022-12-16T10:59:58.072Z,17.70
2022-12-16T11:02:46.176Z,17.60
2022-12-16T11:05:52.561Z,16.80
2022-12-16T11:08:49.011Z,19.50
2022-12-16T11:11:41.693Z,18.50
2022-12-16T11:14:50.284Z,20.50
2022-12-16T11:17:46.909Z,20.00
2022-12-16T11:20:37.033Z,18.97
2022-12-16T11:23:41.549Z,18.13
2022-12-16T11:39:39.347Z,21.73
2022-12-16T11:42:28.273Z,20.50
2022-12-16T11:45:19.544Z,20.50
2022-12-16T11:48:08.299Z,20.53
2022-12-16T11:50:58.945Z,23.43
2022-12-16T11:53:51.758Z,21.53
2022-12-16T11:56:42.928Z,20.90
2022-12-16T11:59:37.474Z,22.47
2022-12-16T12:02:39.429Z,23.97
2022-12-16T12:05:26.013Z,20.63
2022-12-16T12:08:17.991Z,20.03
2022-12-16T12:11:12.829Z,20.53
2022-12-16T12:14:26.846Z,19.30
2022-12-16T12:17:22.411Z,20.20
2022-12-16T12:20:20.213Z,20.43
2022-12-16T12:23:05.997Z,21.13
2022-12-16T12:25:59.799Z,20.57
2022-12-16T12:28:59.297Z,21.23
2022-12-16T12:31:54.984Z,19.30
2022-12-16T12:34:51.859Z,21.63
2022-12-16T12:37:44.871Z,22.17
2022-12-16T12:40:47.926Z,21.57
2022-12-16T12:43:43.473Z,21.17
2022-12-16T12:46:38.896Z,19.27
2022-12-16T12:53:03.614Z,21.90
2022-12-16T12:56:14.295Z,21.03
2022-12-16T12:59:00.983Z,19.73
2022-12-16T13:01:51.086Z,20.73
2022-12-16T13:04:41.148Z,20.30
2022-12-16T13:07:28.069Z,19.33
2022-12-16T13:10:46.206Z,19.03
2022-12-16T13:13:53.755Z,18.33
2022-12-16T13:17:25.896Z,22.20
2022-12-16T13:20:15.799Z,19.97
2022-12-16T13:23:03.925Z,23.17
2022-12-16T13:25:59.755Z,21.17
2022-12-16T13:28:48.703Z,19.60
2022-12-16T13:31:38.473Z,18.57
2022-12-16T13:34:39.780Z,17.93
2022-12-16T13:37:41.643Z,16.40
2022-12-16T13:40:36.358Z,18.20
2022-12-16T13:43:23.958Z,18.20
2022-12-16T13:46:36.400Z,19.67
2022-12-16T13:49:52.276Z,20.57
2022-12-16T13:52:41.841Z,18.07
2022-12-16T13:55:37.375Z,20.33
2022-12-16T13:58:30.908Z,22.63
2022-12-16T14:01:24.533Z,22.37
2022-12-16T14:04:11.849Z,18.30
2022-12-16T14:06:58.619Z,18.63
2022-12-16T14:09:52.639Z,17.27
2022-12-16T14:13:07.349Z,15.97
2022-12-16T14:16:04.608Z,16.27
2022-12-16T14:19:00.282Z,18.80
2022-12-16T14:25:35.716Z,35.80
2022-12-16T14:28:27.147Z,23.80
2022-12-16T14:31:23.056Z,24.03
2022-12-16T14:34:12.514Z,22.23
2022-12-16T14:36:59.414Z,24.10
2022-12-16T14:43:01.553Z,23.73
2022-12-16T14:45:49.274Z,27.60
2022-12-16T14:48:49.276Z,22.00
2022-12-16T14:51:48.041Z,19.93
2022-12-16T14:54:40.696Z,20.57
2022-12-16T14:57:31.670Z,19.50
2022-12-16T15:03:57.572Z,24.57
2022-12-16T15:06:56.979Z,31.53
2022-12-16T15:09:46.309Z,22.17
2022-12-16T15:12:34.722Z,22.73
2022-12-16T15:15:26.995Z,26.60
2022-12-16T15:18:15.161Z,23.53
2022-12-16T15:21:26.439Z,23.33
2022-12-16T15:27:33.568Z,17.57
2022-12-16T15:30:19.782Z,19.57
2022-12-16T15:33:12.831Z,24.83
2022-12-16T15:35:58.721Z,25.87
2022-12-16T15:38:48.099Z,24.17
2022-12-16T15:41:40.243Z,21.83
2022-12-16T15:44:34.249Z,23.87
2022-12-16T15:47:20.401Z,21.03
2022-12-16T15:50:08.705Z,19.10
2022-12-16T15:56:36.019Z,19.73
2022-12-16T16:00:14.058Z,23.07
2022-12-16T16:03:05.865Z,22.83
2022-12-16T16:05:55.035Z,18.60
2022-12-16T16:08:41.201Z,20.07
2022-12-16T16:11:27.536Z,19.10
2022-12-16T16:14:14.560Z,38.30
2022-12-16T16:17:00.576Z,23.53
2022-12-16T16:19:46.966Z,21.60
2022-12-16T16:22:36.259Z,19.97
2022-12-16T16:25:22.737Z,21.90
2022-12-16T16:28:08.640Z,19.13
2022-12-16T16:30:54.587Z,19.67
2022-12-16T16:33:40.713Z,17.43
2022-12-16T16:39:37.891Z,18.67
2022-12-16T16:42:25.530Z,19.10
2022-12-16T16:45:11.287Z,18.17
2022-12-16T16:47:57.423Z,16.63
2022-12-16T16:50:43.169Z,21.37
2022-12-16T16:53:34.230Z,19.90
2022-12-16T16:56:23.181Z,17.47
2022-12-16T16:59:09.079Z,32.70
2022-12-16T17:01:55.302Z,20.27
2022-12-16T17:04:41.299Z,21.40
2022-12-16T17:07:27.183Z,28.70
2022-12-16T17:10:13.064Z,24.13
2022-12-16T17:13:04.406Z,24.73
2022-12-16T17:15:52.867Z,32.23
2022-12-16T17:18:45.598Z,30.03
2022-12-16T17:21:50.346Z,25.37
2022-12-16T17:24:36.312Z,21.03
2022-12-16T17:27:32.235Z,26.60
2022-12-16T17:30:20.121Z,22.37
2022-12-16T17:33:05.764Z,29.33
2022-12-16T17:35:51.848Z,20.27
2022-12-16T17:38:37.958Z,27.87
2022-12-16T17:44:27.615Z,21.63
2022-12-16T17:47:15.085Z,24.27
2022-12-16T17:50:38.134Z,25.33
2022-12-16T17:53:23.944Z,28.93
2022-12-16T17:56:09.876Z,14.30
2022-12-16T17:58:56.612Z,13.23
2022-12-16T18:01:42.876Z,13.60
2022-12-16T18:04:32.766Z,19.30
2022-12-16T18:07:18.887Z,38.10
2022-12-16T18:10:04.837Z,18.00
2022-12-16T18:12:51.535Z,20.80
2022-12-16T18:16:28.216Z,24.83
2022-12-16T18:19:14.491Z,17.77
2022-12-16T18:22:02.130Z,29.97
2022-12-16T18:27:57.971Z,20.57
2022-12-16T18:30:45.850Z,23.27
2022-12-16T18:33:31.793Z,24.83
2022-12-16T18:36:20.319Z,23.40
2022-12-16T18:39:07.596Z,32.80
2022-12-16T18:42:00.992Z,36.30
2022-12-16T18:44:46.649Z,28.83
2022-12-16T18:47:32.492Z,25.00
2022-12-16T18:50:22.261Z,22.03
2022-12-16T18:56:28.217Z,16.70
2022-12-16T18:59:14.443Z,22.63
2022-12-16T19:02:27.396Z,22.13
2022-12-16T19:05:13.186Z,15.50
2022-12-16T19:07:58.623Z,19.37
2022-12-16T19:10:44.192Z,20.27
2022-12-16T19:13:33.697Z,20.50
2022-12-16T19:16:21.674Z,19.90
2022-12-16T19:19:07.422Z,32.63
2022-12-16T19:22:23.198Z,26.20
2022-12-16T19:25:10.854Z,27.63
2022-12-16T19:27:57.037Z,21.57
2022-12-16T19:30:44.168Z,23.67
2022-12-16T19:33:29.573Z,23.00
2022-12-16T19:36:15.834Z,28.93
2022-12-16T19:39:01.774Z,19.07
2022-12-16T19:41:47.478Z,22.90
2022-12-16T19:44:33.491Z,21.00
2022-12-16T19:47:21.120Z,32.10
2022-12-16T19:50:06.605Z,29.00
2022-12-16T19:52:52.948Z,25.37
2022-12-16T19:58:51.785Z,14.30
2022-12-16T20:01:37.703Z,15.67
2022-12-16T20:04:25.155Z,27.60
2022-12-16T20:07:11.369Z,17.20
2022-12-16T20:09:56.721Z,24.77
2022-12-16T20:12:42.692Z,20.53
2022-12-16T20:15:53.640Z,21.33
2022-12-16T20:18:41.902Z,22.63
2022-12-16T20:21:31.428Z,18.20
2022-12-16T20:24:17.523Z,16.83
2022-12-16T20:27:03.190Z,17.90
2022-12-16T20:29:48.707Z,17.47
2022-12-16T20:32:33.425Z,14.30
2022-12-16T20:35:33.712Z,15.93
2022-12-16T20:38:21.020Z,14.60
2022-12-16T20:41:14.467Z,17.20
2022-12-16T20:44:00.238Z,17.83
2022-12-16T20:46:47.543Z,14.43
2022-12-16T20:49:34.764Z,21.80
2022-12-16T20:52:20.516Z,16.67
2022-12-16T20:55:07.770Z,14.57
2022-12-16T20:57:53.940Z,16.33
2022-12-16T21:00:42.220Z,16.93
2022-12-16T21:03:28.598Z,20.90
2022-12-16T21:06:14.199Z,19.50
2022-12-16T21:09:00.425Z,14.00
2022-12-16T21:11:48.174Z,13.27
2022-12-16T21:14:35.704Z,15.33
2022-12-16T21:17:21.588Z,14.63
2022-12-16T21:20:07.409Z,14.47
2022-12-16T21:22:53.573Z,14.50
2022-12-16T21:25:39.199Z,14.60
2022-12-16T21:28:26.822Z,14.23
2022-12-16T21:31:12.768Z,13.63
2022-12-16T21:33:58.582Z,14.70
2022-12-16T21:36:44.483Z,13.33
2022-12-16T21:39:30.089Z,12.83
2022-12-16T21:42:12.454Z,18.53
2022-12-16T21:44:59.552Z,11.70
2022-12-16T21:47:45.023Z,11.00
2022-12-16T21:50:32.261Z,15.23
2022-12-16T21:53:29.802Z,15.97
2022-12-16T21:56:16.480Z,13.37
2022-12-16T21:59:02.882Z,16.37
2022-12-16T22:01:50.808Z,17.17
2022-12-16T22:04:37.720Z,16.17
2022-12-16T22:07:23.128Z,15.77
2022-12-16T22:10:09.114Z,18.27
2022-12-16T22:12:56.289Z,15.23
2022-12-16T22:15:42.478Z,17.67
2022-12-16T22:18:29.918Z,14.63
2022-12-16T22:21:16.905Z,13.70
2022-12-16T22:24:03.041Z,14.90
2022-12-16T22:26:48.598Z,17.53
2022-12-16T22:29:34.754Z,17.03
2022-12-16T22:32:20.734Z,13.73
2022-12-16T22:35:33.387Z,15.83
2022-12-16T22:38:19.192Z,18.30
2022-12-16T22:41:13.339Z,13.60
2022-12-16T22:43:59.070Z,12.60
2022-12-16T22:46:45.042Z,13.53
2022-12-16T22:49:36.468Z,12.77
2022-12-16T22:52:23.862Z,13.13
2022-12-16T22:55:09.699Z,14.73
2022-12-16T22:57:55.127Z,13.50
2022-12-16T23:00:42.182Z,17.10
2022-12-16T23:03:34.761Z,14.13
2022-12-16T23:06:21.044Z,15.93
2022-12-16T23:09:07.999Z,13.17
2022-12-16T23:12:11.126Z,14.03
2022-12-16T23:15:21.510Z,13.27
2022-12-16T23:18:07.391Z,12.57
2022-12-16T23:21:22.334Z,12.77
2022-12-16T23:24:12.004Z,15.40
2022-12-16T23:26:57.435Z,13.20
2022-12-16T23:29:43.126Z,12.60
2022-12-16T23:32:28.669Z,11.87
2022-12-16T23:35:14.231Z,11.57
2022-12-16T23:37:59.968Z,14.37
2022-12-16T23:40:51.920Z,13.63
2022-12-16T23:43:38.078Z,13.77
2022-12-16T23:46:24.285Z,13.20
2022-12-16T23:49:10.257Z,12.90
2022-12-16T23:51:55.962Z,11.83
2022-12-16T23:54:53.452Z,12.53
2022-12-16T23:57:43.261Z,12.00
